createdAt,value
2018-11-25T00:00:59.742Z,62.53
2018-11-25T00:03:33.388Z,66.53
2018-11-25T00:06:06.901Z,69.73
2018-11-25T00:08:43.411Z,65.80
2018-11-25T00:11:16.903Z,62.53
2018-11-25T00:13:50.461Z,60.43
2018-11-25T00:16:23.908Z,68.60
2018-11-25T00:18:57.480Z,58.60
2018-11-25T00:21:31.140Z,58.27
2018-11-25T00:24:05.321Z,60.93
2018-11-25T00:26:38.957Z,60.23
2018-11-25T00:29:12.540Z,63.13
2018-11-25T00:31:46.119Z,60.73
2018-11-25T00:34:19.569Z,57.63
2018-11-25T00:36:53.014Z,59.90
2018-11-25T00:39:26.590Z,58.87
2018-11-25T00:42:00.268Z,55.43
2018-11-25T00:44:33.892Z,61.73
2018-11-25T00:47:07.395Z,58.40
2018-11-25T00:49:40.934Z,63.60
2018-11-25T00:52:14.389Z,63.87
2018-11-25T00:54:48.090Z,59.70
2018-11-25T00:57:21.600Z,64.70
2018-11-25T00:59:55.362Z,63.13
2018-11-25T01:02:28.792Z,61.13
2018-11-25T01:05:02.460Z,60.83
2018-11-25T01:07:36.099Z,69.30
2018-11-25T01:10:10.798Z,65.07
2018-11-25T01:12:44.637Z,64.40
2018-11-25T01:15:18.162Z,61.97
2018-11-25T01:17:51.702Z,62.63
2018-11-25T01:20:25.332Z,66.82
2018-11-25T01:22:59.035Z,67.53
2018-11-25T01:25:32.691Z,66.87
2018-11-25T01:28:06.133Z,70.47
2018-11-25T01:30:39.598Z,67.17
2018-11-25T01:33:13.090Z,76.83
2018-11-25T01:35:46.576Z,70.70
2018-11-25T01:38:20.185Z,74.43
2018-11-25T01:40:53.680Z,71.60
2018-11-25T01:43:27.263Z,80.93
2018-11-25T01:46:00.807Z,76.53
2018-11-25T01:48:34.469Z,75.97
2018-11-25T01:51:08.020Z,75.40
2018-11-25T01:53:41.646Z,85.27
2018-11-25T01:56:15.743Z,77.80
2018-11-25T01:58:49.291Z,73.30
2018-11-25T02:01:22.842Z,86.30
2018-11-25T02:03:56.392Z,84.87
2018-11-25T02:06:29.841Z,90.67
2018-11-25T02:09:05.444Z,93.53
2018-11-25T02:11:39.096Z,87.77
2018-11-25T02:14:12.532Z,88.23
2018-11-25T02:16:46.140Z,93.50
2018-11-25T02:19:20.109Z,83.30
2018-11-25T02:21:53.557Z,71.97
2018-11-25T02:24:27.268Z,85.53
2018-11-25T02:27:00.714Z,82.62
2018-11-25T02:29:34.205Z,81.40
2018-11-25T02:32:07.695Z,89.70
2018-11-25T02:34:41.458Z,95.53
2018-11-25T02:37:14.897Z,89.30
2018-11-25T02:39:48.430Z,88.97
2018-11-25T02:42:22.030Z,91.03
2018-11-25T02:44:55.597Z,85.73
2018-11-25T02:47:29.136Z,98.00
2018-11-25T02:50:02.879Z,86.10
2018-11-25T02:52:36.351Z,92.43
2018-11-25T02:55:15.970Z,97.50
2018-11-25T02:57:49.614Z,90.03
2018-11-25T03:00:23.176Z,96.57
2018-11-25T03:02:56.849Z,90.87
2018-11-25T03:05:30.460Z,90.13
2018-11-25T03:08:04.015Z,88.10
2018-11-25T03:10:37.514Z,99.43
2018-11-25T03:13:11.217Z,93.07
2018-11-25T03:15:44.777Z,96.63
2018-11-25T03:18:18.324Z,93.80
2018-11-25T03:20:51.981Z,102.10
2018-11-25T03:23:25.375Z,97.60
2018-11-25T03:25:58.949Z,100.17
2018-11-25T03:28:32.622Z,93.73
2018-11-25T03:31:06.361Z,97.43
2018-11-25T03:33:39.851Z,91.50
2018-11-25T03:36:13.585Z,102.10
2018-11-25T03:38:47.078Z,94.47
2018-11-25T03:41:20.739Z,96.00
2018-11-25T03:43:54.512Z,93.93
2018-11-25T03:46:27.891Z,96.53
2018-11-25T03:49:01.281Z,87.00
2018-11-25T03:51:34.865Z,100.53
2018-11-25T03:54:08.565Z,92.43
2018-11-25T03:56:42.134Z,97.20
2018-11-25T03:59:15.731Z,89.22
2018-11-25T04:01:49.274Z,96.92
2018-11-25T04:04:22.799Z,83.97
2018-11-25T04:06:56.396Z,92.97
2018-11-25T04:09:29.793Z,87.90
2018-11-25T04:12:03.386Z,87.13
2018-11-25T04:14:36.906Z,85.90
2018-11-25T04:17:10.461Z,80.10
2018-11-25T04:19:43.819Z,95.83
2018-11-25T04:22:17.273Z,91.17
2018-11-25T04:24:50.604Z,85.00
2018-11-25T04:27:24.172Z,95.50
2018-11-25T04:29:57.842Z,83.07
2018-11-25T04:32:31.447Z,91.03
2018-11-25T04:35:06.086Z,90.53
2018-11-25T04:37:39.672Z,84.70
2018-11-25T04:40:14.189Z,88.17
2018-11-25T04:42:47.720Z,93.43
2018-11-25T04:45:21.251Z,85.03
2018-11-25T04:47:54.819Z,86.87
2018-11-25T04:50:28.387Z,82.07
2018-11-25T04:53:01.925Z,83.43
2018-11-25T04:55:35.454Z,82.53
2018-11-25T04:58:08.992Z,85.17
2018-11-25T05:00:42.492Z,82.03
2018-11-25T05:03:16.203Z,82.47
2018-11-25T05:05:49.714Z,77.50
2018-11-25T05:08:23.157Z,78.17
2018-11-25T05:10:56.674Z,77.83
2018-11-25T05:13:30.187Z,80.00
2018-11-25T05:16:03.755Z,78.00
2018-11-25T05:18:37.290Z,81.00
2018-11-25T05:21:10.791Z,84.90
2018-11-25T05:23:44.280Z,81.37
2018-11-25T05:26:17.838Z,84.70
2018-11-25T05:28:51.492Z,88.60
2018-11-25T05:31:25.073Z,82.72
2018-11-25T05:33:58.692Z,82.00
2018-11-25T05:36:32.123Z,82.10
2018-11-25T05:39:08.117Z,76.37
2018-11-25T05:41:41.788Z,78.40
2018-11-25T05:44:15.247Z,81.67
2018-11-25T05:46:48.713Z,81.03
2018-11-25T05:49:22.379Z,78.53
2018-11-25T05:51:55.970Z,80.87
2018-11-25T05:54:29.514Z,82.53
2018-11-25T05:57:02.944Z,78.20
2018-11-25T05:59:36.386Z,77.22
2018-11-25T06:02:10.068Z,83.13
2018-11-25T06:04:43.567Z,81.97
2018-11-25T06:07:17.208Z,79.03
2018-11-25T06:09:50.812Z,79.43
2018-11-25T06:12:24.272Z,79.70
2018-11-25T06:14:57.943Z,82.20
2018-11-25T06:17:31.407Z,77.67
2018-11-25T06:20:06.988Z,82.93
2018-11-25T06:22:40.924Z,72.13
2018-11-25T06:25:16.374Z,80.63
2018-11-25T06:27:49.703Z,87.03
2018-11-25T06:30:23.268Z,82.17
2018-11-25T06:32:56.763Z,82.17
2018-11-25T06:35:30.369Z,85.13
2018-11-25T06:38:03.795Z,88.07
2018-11-25T06:40:37.359Z,77.87
2018-11-25T06:43:11.097Z,82.33
2018-11-25T06:45:44.592Z,83.40
2018-11-25T06:48:18.209Z,79.47
2018-11-25T06:50:51.855Z,74.33
2018-11-25T06:53:25.569Z,72.97
2018-11-25T06:55:59.170Z,76.00
2018-11-25T06:58:32.642Z,72.70
2018-11-25T07:01:07.540Z,81.77
2018-11-25T07:03:41.227Z,80.13
2018-11-25T07:06:14.593Z,76.93
2018-11-25T07:08:48.189Z,81.40
2018-11-25T07:11:21.671Z,82.77
2018-11-25T07:13:55.283Z,83.53
2018-11-25T07:16:28.692Z,80.70
2018-11-25T07:19:02.380Z,80.73
2018-11-25T07:21:35.776Z,79.43
2018-11-25T07:24:09.227Z,78.83
2018-11-25T07:26:42.812Z,83.62
2018-11-25T07:29:16.227Z,84.53
2018-11-25T07:31:49.800Z,84.93
2018-11-25T07:34:23.336Z,87.20
2018-11-25T07:36:56.985Z,85.53
2018-11-25T07:39:30.391Z,85.00
2018-11-25T07:42:04.001Z,92.00
2018-11-25T07:44:44.048Z,90.43
2018-11-25T07:47:17.587Z,79.77
2018-11-25T07:49:51.262Z,79.00
2018-11-25T07:52:24.745Z,84.37
2018-11-25T07:54:58.178Z,84.43
2018-11-25T07:57:31.748Z,78.30
2018-11-25T08:00:23.721Z,82.88
2018-11-25T08:02:57.297Z,81.60
2018-11-25T08:05:30.888Z,83.83
2018-11-25T08:08:04.613Z,85.37
2018-11-25T08:10:38.240Z,77.50
2018-11-25T08:13:11.785Z,88.13
2018-11-25T08:15:45.398Z,90.90
2018-11-25T08:18:19.182Z,85.43
2018-11-25T08:20:52.750Z,78.90
2018-11-25T08:23:26.341Z,86.90
2018-11-25T08:25:59.884Z,87.70
2018-11-25T08:28:33.374Z,88.53
2018-11-25T08:31:07.058Z,76.42
2018-11-25T08:33:40.579Z,98.13
2018-11-25T08:36:14.262Z,85.77
2018-11-25T08:38:47.818Z,87.03
2018-11-25T08:41:21.409Z,89.73
2018-11-25T08:43:55.089Z,85.40
2018-11-25T08:46:28.717Z,86.97
2018-11-25T08:49:02.234Z,91.50
2018-11-25T08:51:35.805Z,95.90
2018-11-25T08:54:09.382Z,86.30
2018-11-25T08:56:42.899Z,87.40
2018-11-25T08:59:16.483Z,87.10
2018-11-25T09:01:50.064Z,96.32
2018-11-25T09:04:23.695Z,90.30
2018-11-25T09:06:57.270Z,85.93
2018-11-25T09:09:30.838Z,88.63
2018-11-25T09:12:04.433Z,92.40
2018-11-25T09:14:37.996Z,86.73
2018-11-25T09:17:11.379Z,83.75
2018-11-25T09:19:44.896Z,93.17
2018-11-25T09:22:18.517Z,93.17
2018-11-25T09:24:51.982Z,74.20
2018-11-25T09:27:25.724Z,91.83
2018-11-25T09:29:59.334Z,82.60
2018-11-25T09:32:32.786Z,94.75
2018-11-25T09:35:06.631Z,81.75
2018-11-25T09:37:40.239Z,83.03
2018-11-25T09:40:15.821Z,82.22
2018-11-25T09:42:49.416Z,86.73
2018-11-25T09:45:22.897Z,94.13
2018-11-25T09:47:56.555Z,88.85
2018-11-25T09:50:30.073Z,89.87
2018-11-25T09:53:03.672Z,85.28
2018-11-25T09:55:37.248Z,85.60
2018-11-25T09:58:10.864Z,84.30
2018-11-25T10:00:44.481Z,83.73
2018-11-25T10:03:17.921Z,92.67
2018-11-25T10:05:51.448Z,81.63
2018-11-25T10:08:24.881Z,93.87
2018-11-25T10:10:58.270Z,89.20
2018-11-25T10:13:31.729Z,87.62
2018-11-25T10:16:05.408Z,87.80
2018-11-25T10:18:39.070Z,83.00
2018-11-25T10:21:12.706Z,79.30
2018-11-25T10:23:46.184Z,84.85
2018-11-25T10:26:19.698Z,79.10
2018-11-25T10:28:53.301Z,86.55
2018-11-25T10:31:26.840Z,82.57
2018-11-25T10:34:00.305Z,83.92
2018-11-25T10:36:33.821Z,85.00
2018-11-25T10:39:08.028Z,76.92
2018-11-25T10:41:41.671Z,72.78
2018-11-25T10:44:15.173Z,75.70
2018-11-25T10:46:48.623Z,78.95
2018-11-25T10:49:22.545Z,69.87
2018-11-25T10:51:55.709Z,80.80
2018-11-25T10:54:29.405Z,77.37
2018-11-25T10:57:02.846Z,81.63
2018-11-25T10:59:36.301Z,72.42
2018-11-25T11:02:15.576Z,75.17
2018-11-25T11:04:54.773Z,74.25
2018-11-25T11:07:34.071Z,74.23
2018-11-25T11:10:08.579Z,76.02
2018-11-25T11:12:42.556Z,75.08
2018-11-25T11:15:16.119Z,73.70
2018-11-25T11:17:49.680Z,68.78
2018-11-25T11:20:23.199Z,72.80
2018-11-25T11:22:56.776Z,69.17
2018-11-25T11:25:30.316Z,62.38
2018-11-25T11:28:03.969Z,65.55
2018-11-25T11:30:37.518Z,75.42
2018-11-25T11:33:11.018Z,72.87
2018-11-25T11:35:44.418Z,64.20
2018-11-25T11:38:17.851Z,73.00
2018-11-25T11:40:51.236Z,68.33
2018-11-25T11:43:24.722Z,69.32
2018-11-25T11:45:58.327Z,66.80
2018-11-25T11:48:31.799Z,65.97
2018-11-25T11:51:05.308Z,68.92
2018-11-25T11:53:38.745Z,68.45
2018-11-25T11:56:12.360Z,71.70
2018-11-25T11:58:45.807Z,71.42
2018-11-25T12:01:19.263Z,67.53
2018-11-25T12:03:53.093Z,65.12
2018-11-25T12:06:26.675Z,66.72
2018-11-25T12:09:00.315Z,70.85
2018-11-25T12:11:33.904Z,74.22
2018-11-25T12:14:07.340Z,70.20
2018-11-25T12:16:40.894Z,74.35
2018-11-25T12:19:14.311Z,70.90
2018-11-25T12:21:47.708Z,71.22
2018-11-25T12:24:21.344Z,71.92
2018-11-25T12:26:55.090Z,77.60
2018-11-25T12:29:28.537Z,77.45
2018-11-25T12:32:02.075Z,75.52
2018-11-25T12:34:35.609Z,73.75
2018-11-25T12:37:09.279Z,77.32
2018-11-25T12:39:42.877Z,74.43
2018-11-25T12:42:16.294Z,81.95
2018-11-25T12:44:49.883Z,75.50
2018-11-25T12:47:24.288Z,82.57
2018-11-25T12:49:56.968Z,79.67
2018-11-25T12:52:30.265Z,86.37
2018-11-25T12:55:04.549Z,80.10
2018-11-25T12:57:38.262Z,81.45
2018-11-25T13:00:48.110Z,78.10
2018-11-25T13:03:21.839Z,81.37
2018-11-25T13:05:55.336Z,80.20
2018-11-25T13:08:28.951Z,72.32
2018-11-25T13:11:02.541Z,72.37
2018-11-25T13:13:36.256Z,76.50
2018-11-25T13:16:09.764Z,76.02
2018-11-25T13:18:43.191Z,77.05
2018-11-25T13:21:16.547Z,77.78
2018-11-25T13:23:50.023Z,76.90
2018-11-25T13:26:23.438Z,77.12
2018-11-25T13:28:57.840Z,72.47
2018-11-25T13:31:31.644Z,79.45
2018-11-25T13:34:05.275Z,77.30
2018-11-25T13:36:38.980Z,82.37
2018-11-25T13:39:19.752Z,83.62
2018-11-25T13:41:53.181Z,84.97
2018-11-25T13:44:26.598Z,73.02
2018-11-25T13:47:00.334Z,78.40
2018-11-25T13:49:33.837Z,87.55
2018-11-25T13:52:07.712Z,80.40
2018-11-25T13:54:41.132Z,85.80
2018-11-25T13:57:14.507Z,80.47
2018-11-25T13:59:47.902Z,76.25
2018-11-25T14:02:21.472Z,79.92
2018-11-25T14:04:55.023Z,78.52
2018-11-25T14:07:28.467Z,83.47
2018-11-25T14:10:12.473Z,78.70
2018-11-25T14:12:45.853Z,73.45
2018-11-25T14:15:19.645Z,76.67
2018-11-25T14:17:53.140Z,75.70
2018-11-25T14:20:26.818Z,69.15
2018-11-25T14:23:00.306Z,78.50
2018-11-25T14:25:33.830Z,70.37
2018-11-25T14:28:09.196Z,76.28
2018-11-25T14:30:42.704Z,65.55
2018-11-25T14:33:16.234Z,58.42
2018-11-25T14:35:49.697Z,69.00
2018-11-25T14:38:23.600Z,60.70
2018-11-25T14:40:57.024Z,62.75
2018-11-25T14:43:30.741Z,68.05
2018-11-25T14:46:04.177Z,58.42
2018-11-25T14:48:37.669Z,58.15
2018-11-25T14:51:11.344Z,67.87
2018-11-25T14:53:44.967Z,60.03
2018-11-25T14:56:18.540Z,65.17
2018-11-25T14:58:52.102Z,71.72
2018-11-25T15:01:25.743Z,63.33
2018-11-25T15:03:59.247Z,61.95
2018-11-25T15:06:32.804Z,66.47
2018-11-25T15:09:08.748Z,68.65
2018-11-25T15:11:42.324Z,69.32
2018-11-25T15:14:15.711Z,61.70
2018-11-25T15:16:49.238Z,65.60
2018-11-25T15:19:22.651Z,63.55
2018-11-25T15:21:56.340Z,60.63
2018-11-25T15:24:29.919Z,54.25
2018-11-25T15:27:03.318Z,61.35
2018-11-25T15:29:36.909Z,56.97
2018-11-25T15:32:10.507Z,62.00
2018-11-25T15:34:44.157Z,65.23
2018-11-25T15:37:17.674Z,65.43
2018-11-25T15:39:51.661Z,62.35
2018-11-25T15:42:25.186Z,62.60
2018-11-25T15:44:58.698Z,61.33
2018-11-25T15:47:32.128Z,58.37
2018-11-25T15:50:08.885Z,57.80
2018-11-25T15:52:42.309Z,57.23
2018-11-25T15:55:16.144Z,58.13
2018-11-25T15:57:49.657Z,60.43
2018-11-25T16:00:23.840Z,58.43
2018-11-25T16:02:57.483Z,56.57
2018-11-25T16:05:32.099Z,58.27
2018-11-25T16:08:05.801Z,60.95
2018-11-25T16:10:39.381Z,61.23
2018-11-25T16:13:12.827Z,56.92
2018-11-25T16:15:46.419Z,59.20
2018-11-25T16:18:19.783Z,57.70
2018-11-25T16:20:53.211Z,59.35
2018-11-25T16:23:26.711Z,57.98
2018-11-25T16:26:05.796Z,62.25
2018-11-25T16:28:41.931Z,56.43
2018-11-25T16:31:15.483Z,64.60
2018-11-25T16:33:49.037Z,59.77
2018-11-25T16:36:22.538Z,57.35
2018-11-25T16:38:55.995Z,67.57
2018-11-25T16:41:29.381Z,61.37
2018-11-25T16:44:02.955Z,66.00
2018-11-25T16:46:37.343Z,62.80
2018-11-25T16:49:10.704Z,65.10
2018-11-25T16:51:44.343Z,55.00
2018-11-25T16:54:18.165Z,63.23
2018-11-25T16:56:51.540Z,60.03
2018-11-25T16:59:25.001Z,64.50
2018-11-25T17:01:58.606Z,67.58
2018-11-25T17:04:32.929Z,62.47
2018-11-25T17:07:06.461Z,64.50
2018-11-25T17:09:40.129Z,62.67
2018-11-25T17:12:13.635Z,64.63
2018-11-25T17:14:47.179Z,58.33
2018-11-25T17:17:20.633Z,60.80
2018-11-25T17:19:54.002Z,61.83
2018-11-25T17:22:27.536Z,57.67
2018-11-25T17:25:01.164Z,58.17
2018-11-25T17:27:34.699Z,60.47
2018-11-25T17:30:15.392Z,56.02
2018-11-25T17:32:48.822Z,58.60
2018-11-25T17:35:23.997Z,59.77
2018-11-25T17:37:57.592Z,57.90
2018-11-25T17:40:31.081Z,57.58
2018-11-25T17:43:06.218Z,58.47
2018-11-25T17:45:39.803Z,53.58
2018-11-25T17:48:13.441Z,61.03
2018-11-25T17:50:46.901Z,55.20
2018-11-25T17:53:21.136Z,56.10
2018-11-25T17:55:54.262Z,51.10
2018-11-25T17:58:27.858Z,59.07
2018-11-25T18:01:05.220Z,53.73
2018-11-25T18:03:38.856Z,52.03
2018-11-25T18:06:12.359Z,52.70
2018-11-25T18:08:45.844Z,50.97
2018-11-25T18:11:19.417Z,52.07
2018-11-25T18:13:52.947Z,56.40
2018-11-25T18:16:26.667Z,52.70
2018-11-25T18:19:11.923Z,52.87
2018-11-25T18:21:45.422Z,54.97
2018-11-25T18:24:19.050Z,52.50
2018-11-25T18:26:52.586Z,49.70
2018-11-25T18:29:26.199Z,46.98
2018-11-25T18:31:59.687Z,49.47
2018-11-25T18:34:33.213Z,50.33
2018-11-25T18:37:06.788Z,49.10
2018-11-25T18:39:40.258Z,48.25
2018-11-25T18:42:13.690Z,57.10
2018-11-25T18:44:52.551Z,51.00
2018-11-25T18:47:26.612Z,48.47
2018-11-25T18:50:00.081Z,48.20
2018-11-25T18:52:33.611Z,50.67
2018-11-25T18:55:06.202Z,46.77
2018-11-25T18:57:39.779Z,49.57
2018-11-25T19:00:31.034Z,48.90
2018-11-25T19:03:04.545Z,47.23
2018-11-25T19:05:38.164Z,45.73
2018-11-25T19:08:11.622Z,44.83
2018-11-25T19:10:45.227Z,45.60
2018-11-25T19:13:18.655Z,41.83
2018-11-25T19:15:52.127Z,43.23
2018-11-25T19:18:25.851Z,41.35
2018-11-25T19:20:59.639Z,36.57
2018-11-25T19:23:33.446Z,41.70
2018-11-25T19:26:07.227Z,41.50
2018-11-25T19:28:40.987Z,38.50
2018-11-25T19:31:14.694Z,38.17
2018-11-25T19:33:48.472Z,37.80
2018-11-25T19:36:22.374Z,37.13
2018-11-25T19:38:56.135Z,31.90
2018-11-25T19:41:29.950Z,36.77
2018-11-25T19:44:04.194Z,38.93
2018-11-25T19:46:38.263Z,38.37
2018-11-25T19:49:12.845Z,37.57
2018-11-25T19:51:47.047Z,34.60
2018-11-25T19:54:22.310Z,36.27
2018-11-25T19:56:56.339Z,36.60
2018-11-25T19:59:30.353Z,36.63
2018-11-25T20:02:04.758Z,42.87
2018-11-25T20:04:38.637Z,40.57
2018-11-25T20:07:12.694Z,36.20
2018-11-25T20:09:46.429Z,38.43
2018-11-25T20:12:25.361Z,39.03
2018-11-25T20:14:59.246Z,40.30
2018-11-25T20:17:34.456Z,35.60
2018-11-25T20:20:13.933Z,37.53
2018-11-25T20:22:48.279Z,37.27
2018-11-25T20:25:22.406Z,37.63
2018-11-25T20:27:56.661Z,35.77
2018-11-25T20:30:31.601Z,34.20
2018-11-25T20:33:11.862Z,37.27
2018-11-25T20:35:45.466Z,35.80
2018-11-25T20:38:25.120Z,34.73
2018-11-25T20:40:58.699Z,29.32
2018-11-25T20:43:32.240Z,33.28
2018-11-25T20:46:11.799Z,30.43
2018-11-25T20:48:45.339Z,32.03
2018-11-25T20:51:24.008Z,32.87
2018-11-25T20:53:59.199Z,29.73
2018-11-25T20:56:32.645Z,31.00
2018-11-25T20:59:06.370Z,32.83
2018-11-25T21:01:39.849Z,34.33
2018-11-25T21:04:13.229Z,33.70
2018-11-25T21:06:46.699Z,31.97
2018-11-25T21:09:20.331Z,30.23
2018-11-25T21:11:53.852Z,35.13
2018-11-25T21:14:27.147Z,29.57
2018-11-25T21:17:00.509Z,36.65
2018-11-25T21:19:33.972Z,31.80
2018-11-25T21:22:07.585Z,32.77
2018-11-25T21:24:40.984Z,34.70
2018-11-25T21:27:14.501Z,31.23
2018-11-25T21:29:47.963Z,30.93
2018-11-25T21:32:21.353Z,33.77
2018-11-25T21:34:54.750Z,32.65
2018-11-25T21:37:28.272Z,37.75
2018-11-25T21:40:01.770Z,36.03
2018-11-25T21:42:35.277Z,31.70
2018-11-25T21:45:11.189Z,37.10
2018-11-25T21:47:45.692Z,30.30
2018-11-25T21:50:21.592Z,35.37
2018-11-25T21:52:55.107Z,32.67
2018-11-25T21:55:28.797Z,33.47
2018-11-25T21:58:02.414Z,32.23
2018-11-25T22:00:35.865Z,35.63
2018-11-25T22:03:09.458Z,34.92
2018-11-25T22:05:42.923Z,35.13
2018-11-25T22:08:16.571Z,32.33
2018-11-25T22:10:50.555Z,34.60
2018-11-25T22:13:24.048Z,33.93
2018-11-25T22:15:57.859Z,35.27
2018-11-25T22:18:31.573Z,35.40
2018-11-25T22:21:05.395Z,33.50
2018-11-25T22:23:39.203Z,32.40
2018-11-25T22:26:12.913Z,33.77
2018-11-25T22:28:46.567Z,35.13
2018-11-25T22:31:20.388Z,35.63
2018-11-25T22:33:54.106Z,33.87
2018-11-25T22:36:27.586Z,34.33
2018-11-25T22:39:00.936Z,32.35
2018-11-25T22:41:34.463Z,33.67
2018-11-25T22:44:08.213Z,31.20
2018-11-25T22:46:41.940Z,28.93
2018-11-25T22:49:15.546Z,32.37
2018-11-25T22:51:49.039Z,30.90
2018-11-25T22:54:22.641Z,31.60
2018-11-25T22:56:56.297Z,31.67
2018-11-25T22:59:29.832Z,29.40
2018-11-25T23:02:03.255Z,26.40
2018-11-25T23:04:48.322Z,30.17
2018-11-25T23:07:21.993Z,26.02
2018-11-25T23:09:55.492Z,30.30
2018-11-25T23:12:29.004Z,29.23
2018-11-25T23:15:02.659Z,29.40
2018-11-25T23:17:36.306Z,29.80
2018-11-25T23:20:09.734Z,30.23
2018-11-25T23:22:43.238Z,25.50
2018-11-25T23:25:16.734Z,29.97
2018-11-25T23:27:50.440Z,28.57
2018-11-25T23:30:23.977Z,30.03
2018-11-25T23:32:57.515Z,30.80
2018-11-25T23:35:32.619Z,28.10
2018-11-25T23:38:06.059Z,34.37
2018-11-25T23:40:39.537Z,27.70
2018-11-25T23:43:13.186Z,27.85
2018-11-25T23:45:46.850Z,29.70
2018-11-25T23:48:20.540Z,31.03
2018-11-25T23:50:54.225Z,27.47
2018-11-25T23:53:27.924Z,33.75
2018-11-25T23:56:01.465Z,30.83
2018-11-25T23:58:35.085Z,31.77
